METAR Data
IDs: Format: Raw Decoded Include TAF

Data at: 1218 UTC 23 Mar 2019

METAR for:PAAK (Atka Arpt, AK, US)
Text:PAAK 231056Z AUTO 26007KT 10SM OVC038 00/M06 A2975 RMK AO2 SLP075 T00001061 FZRANO PNO $
Temperature: 0.0°C ( 32°F)
Dewpoint: -6.1°C ( 21°F) [RH = 63%]
Pressure (altimeter):29.75 inches Hg (1007.5 mb) [Sea level pressure: 1007.5 mb]
Winds:from the W (260 degrees) at 8 MPH (7 knots; 3.6 m/s)
Visibility:10 or more sm (16+ km)
Ceiling:3800 feet AGL
Clouds: overcast cloud deck at 3800 feet AGL
QC Flag:automated observation with no human augmentation; SOME DATA ABOVE MAY BE INACCURATE!!!"$" is an indication the sensor requires maintenance.
Text:PAAK 230956Z AUTO 29012KT 10SM OVC040 00/M07 A2975 RMK AO2 SLP077 T00001072 FZRANO PNO $
Temperature: 0.0°C ( 32°F)
Dewpoint: -7.2°C ( 19°F) [RH = 58%]
Pressure (altimeter):29.75 inches Hg (1007.5 mb) [Sea level pressure: 1007.7 mb]
Winds:from the WNW (290 degrees) at 14 MPH (12 knots; 6.2 m/s)
Visibility:10 or more sm (16+ km)
Ceiling:4000 feet AGL
Clouds: overcast cloud deck at 4000 feet AGL
QC Flag:automated observation with no human augmentation; SOME DATA ABOVE MAY BE INACCURATE!!!"$" is an indication the sensor requires maintenance.
Text:PAAK 230856Z AUTO 29010KT 10SM SCT035 OVC044 01/M07 A2975 RMK AO2 UPB37E47 SLP075 6//// T00061072 400061028 53009 FZRANO PNO $
Temperature: 0.6°C ( 33°F)
Dewpoint: -7.2°C ( 19°F) [RH = 56%]
Pressure (altimeter):29.75 inches Hg (1007.5 mb) [Sea level pressure: 1007.5 mb]
Winds:from the WNW (290 degrees) at 12 MPH (10 knots; 5.1 m/s)
Visibility:10 or more sm (16+ km)
Ceiling:4400 feet AGL
Clouds: scattered clouds at 3500 feet AGL, overcast cloud deck at 4400 feet AGL
QC Flag:automated observation with no human augmentation; SOME DATA ABOVE MAY BE INACCURATE!!!"$" is an indication the sensor requires maintenance.
Text:PAAK 230656Z AUTO 29014G21KT 10SM UP OVC037 00/M04 A2973 RMK AO2 PK WND 30029/0557 UPB0557E09B43SNE0557 SLP069 T00001044 FZRANO PNO $
Temperature: 0.0°C ( 32°F)
Dewpoint: -4.4°C ( 24°F) [RH = 72%]
Pressure (altimeter):29.73 inches Hg (1006.9 mb) [Sea level pressure: 1006.9 mb]
Winds:from the WNW (290 degrees) at 16 MPH (14 knots; 7.2 m/s) gusting to 24 MPH (21 knots; 10.8 m/s)
Visibility:10 or more sm (16+ km)
Ceiling:3700 feet AGL
Clouds: overcast cloud deck at 3700 feet AGL
Weather:UP (unknown precipitation)
QC Flag:automated observation with no human augmentation; SOME DATA ABOVE MAY BE INACCURATE!!!"$" is an indication the sensor requires maintenance.

TAF for:PAAK (Atka Arpt, AK, US)
Text:No data found